sensor_id;sensor_type;location;lat;lon;timestamp;temperature;humidity
12438;DHT22;6283;51.330;12.374;2022-08-19T00:00:03;19.40;1.00
12438;DHT22;6283;51.330;12.374;2022-08-19T00:02:30;19.40;1.00
12438;DHT22;6283;51.330;12.374;2022-08-19T00:04:55;19.40;1.00
12438;DHT22;6283;51.330;12.374;2022-08-19T00:07:21;19.40;1.00
12438;DHT22;6283;51.330;12.374;2022-08-19T00:09:47;19.40;1.00
12438;DHT22;6283;51.330;12.374;2022-08-19T00:12:13;19.50;1.00
12438;DHT22;6283;51.330;12.374;2022-08-19T00:14:39;19.50;1.00
12438;DHT22;6283;51.330;12.374;2022-08-19T00:17:06;19.50;1.00
12438;DHT22;6283;51.330;12.374;2022-08-19T00:19:33;19.50;1.00
12438;DHT22;6283;51.330;12.374;2022-08-19T00:21:59;19.50;1.00
12438;DHT22;6283;51.330;12.374;2022-08-19T00:24:25;19.50;1.00
12438;DHT22;6283;51.330;12.374;2022-08-19T00:26:51;19.50;1.00
12438;DHT22;6283;51.330;12.374;2022-08-19T00:29:20;19.50;1.00
12438;DHT22;6283;51.330;12.374;2022-08-19T00:31:46;19.50;1.00
12438;DHT22;6283;51.330;12.374;2022-08-19T00:34:13;19.40;1.00
12438;DHT22;6283;51.330;12.374;2022-08-19T00:36:40;19.40;1.00
12438;DHT22;6283;51.330;12.374;2022-08-19T00:39:07;19.40;1.00
12438;DHT22;6283;51.330;12.374;2022-08-19T00:41:32;19.40;1.00
12438;DHT22;6283;51.330;12.374;2022-08-19T00:46:34;19.40;1.00
12438;DHT22;6283;51.330;12.374;2022-08-19T00:49:12;19.40;1.00
12438;DHT22;6283;51.330;12.374;2022-08-19T00:51:40;19.40;1.00
12438;DHT22;6283;51.330;12.374;2022-08-19T00:54:07;19.40;1.00
12438;DHT22;6283;51.330;12.374;2022-08-19T00:56:34;19.40;1.00
12438;DHT22;6283;51.330;12.374;2022-08-19T00:59:01;19.40;1.00
12438;DHT22;6283;51.330;12.374;2022-08-19T01:01:27;19.40;1.00
12438;DHT22;6283;51.330;12.374;2022-08-19T01:03:53;19.40;1.00
12438;DHT22;6283;51.330;12.374;2022-08-19T01:06:18;19.40;1.00
12438;DHT22;6283;51.330;12.374;2022-08-19T01:08:44;19.40;1.00
12438;DHT22;6283;51.330;12.374;2022-08-19T01:11:10;19.40;1.00
12438;DHT22;6283;51.330;12.374;2022-08-19T01:13:35;19.40;1.00
12438;DHT22;6283;51.330;12.374;2022-08-19T01:16:08;19.30;1.00
12438;DHT22;6283;51.330;12.374;2022-08-19T01:18:38;19.30;1.00
12438;DHT22;6283;51.330;12.374;2022-08-19T01:21:34;19.40;1.00
12438;DHT22;6283;51.330;12.374;2022-08-19T01:24:03;19.30;1.00
12438;DHT22;6283;51.330;12.374;2022-08-19T01:26:29;19.30;1.00
12438;DHT22;6283;51.330;12.374;2022-08-19T01:28:57;19.30;1.00
12438;DHT22;6283;51.330;12.374;2022-08-19T01:31:25;19.40;1.00
12438;DHT22;6283;51.330;12.374;2022-08-19T01:33:53;19.40;1.00
12438;DHT22;6283;51.330;12.374;2022-08-19T01:36:32;19.40;1.00
12438;DHT22;6283;51.330;12.374;2022-08-19T01:38:58;19.40;1.00
12438;DHT22;6283;51.330;12.374;2022-08-19T01:41:25;19.40;1.00
12438;DHT22;6283;51.330;12.374;2022-08-19T01:43:52;19.40;1.00
12438;DHT22;6283;51.330;12.374;2022-08-19T01:46:18;19.40;1.00
12438;DHT22;6283;51.330;12.374;2022-08-19T01:48:45;19.40;1.00
12438;DHT22;6283;51.330;12.374;2022-08-19T01:51:12;19.50;1.00
12438;DHT22;6283;51.330;12.374;2022-08-19T01:53:39;19.50;1.00
12438;DHT22;6283;51.330;12.374;2022-08-19T01:56:05;19.50;1.00
12438;DHT22;6283;51.330;12.374;2022-08-19T01:58:38;19.50;1.00
12438;DHT22;6283;51.330;12.374;2022-08-19T02:01:06;19.50;1.00
12438;DHT22;6283;51.330;12.374;2022-08-19T02:03:32;19.50;1.00
12438;DHT22;6283;51.330;12.374;2022-08-19T02:06:01;19.50;1.00
12438;DHT22;6283;51.330;12.374;2022-08-19T02:08:29;19.50;1.00
12438;DHT22;6283;51.330;12.374;2022-08-19T02:10:55;19.40;1.00
12438;DHT22;6283;51.330;12.374;2022-08-19T02:13:21;19.40;1.00
12438;DHT22;6283;51.330;12.374;2022-08-19T02:15:47;19.40;1.00
12438;DHT22;6283;51.330;12.374;2022-08-19T02:18:12;19.40;1.00
12438;DHT22;6283;51.330;12.374;2022-08-19T02:20:39;19.30;1.00
12438;DHT22;6283;51.330;12.374;2022-08-19T02:23:06;19.30;1.00
12438;DHT22;6283;51.330;12.374;2022-08-19T02:25:32;19.30;1.00
12438;DHT22;6283;51.330;12.374;2022-08-19T02:27:57;19.30;1.00
12438;DHT22;6283;51.330;12.374;2022-08-19T02:30:24;19.30;1.00
12438;DHT22;6283;51.330;12.374;2022-08-19T02:32:50;19.40;1.00
12438;DHT22;6283;51.330;12.374;2022-08-19T02:35:16;19.30;1.00
12438;DHT22;6283;51.330;12.374;2022-08-19T02:37:42;19.40;1.00
12438;DHT22;6283;51.330;12.374;2022-08-19T02:40:28;19.50;1.00
12438;DHT22;6283;51.330;12.374;2022-08-19T02:42:54;19.50;1.00
12438;DHT22;6283;51.330;12.374;2022-08-19T02:45:19;19.50;1.00
12438;DHT22;6283;51.330;12.374;2022-08-19T02:47:45;19.50;1.00
12438;DHT22;6283;51.330;12.374;2022-08-19T02:50:11;19.50;1.00
12438;DHT22;6283;51.330;12.374;2022-08-19T02:52:38;19.50;1.00
12438;DHT22;6283;51.330;12.374;2022-08-19T02:55:04;19.50;1.00
12438;DHT22;6283;51.330;12.374;2022-08-19T02:57:30;19.50;1.00
12438;DHT22;6283;51.330;12.374;2022-08-19T02:59:57;19.50;1.00
12438;DHT22;6283;51.330;12.374;2022-08-19T03:02:23;19.50;1.00
12438;DHT22;6283;51.330;12.374;2022-08-19T03:04:49;19.60;1.00
12438;DHT22;6283;51.330;12.374;2022-08-19T03:07:15;19.50;1.00
12438;DHT22;6283;51.330;12.374;2022-08-19T03:09:41;19.60;1.00
12438;DHT22;6283;51.330;12.374;2022-08-19T03:12:10;19.50;1.00
12438;DHT22;6283;51.330;12.374;2022-08-19T03:14:36;19.50;1.00
12438;DHT22;6283;51.330;12.374;2022-08-19T03:17:02;19.60;1.00
12438;DHT22;6283;51.330;12.374;2022-08-19T03:19:29;19.60;1.00
12438;DHT22;6283;51.330;12.374;2022-08-19T03:21:55;19.60;1.00
12438;DHT22;6283;51.330;12.374;2022-08-19T03:24:21;19.60;1.00
12438;DHT22;6283;51.330;12.374;2022-08-19T03:26:52;19.60;1.00
12438;DHT22;6283;51.330;12.374;2022-08-19T03:29:18;19.70;1.00
12438;DHT22;6283;51.330;12.374;2022-08-19T03:31:44;19.70;1.00
12438;DHT22;6283;51.330;12.374;2022-08-19T03:34:16;19.70;1.00
12438;DHT22;6283;51.330;12.374;2022-08-19T03:36:42;19.60;1.00
12438;DHT22;6283;51.330;12.374;2022-08-19T03:39:09;19.60;1.00
12438;DHT22;6283;51.330;12.374;2022-08-19T03:41:41;19.50;1.00
12438;DHT22;6283;51.330;12.374;2022-08-19T03:44:07;19.50;1.00
12438;DHT22;6283;51.330;12.374;2022-08-19T03:46:34;19.50;1.00
12438;DHT22;6283;51.330;12.374;2022-08-19T03:49:02;19.40;1.00
12438;DHT22;6283;51.330;12.374;2022-08-19T03:51:37;19.40;1.00
12438;DHT22;6283;51.330;12.374;2022-08-19T03:54:05;19.30;1.00
12438;DHT22;6283;51.330;12.374;2022-08-19T03:56:32;19.30;1.00
12438;DHT22;6283;51.330;12.374;2022-08-19T03:59:01;19.30;1.00
12438;DHT22;6283;51.330;12.374;2022-08-19T04:01:28;19.40;1.00
12438;DHT22;6283;51.330;12.374;2022-08-19T04:03:55;19.30;1.00
12438;DHT22;6283;51.330;12.374;2022-08-19T04:06:24;19.30;1.00
12438;DHT22;6283;51.330;12.374;2022-08-19T04:08:51;19.30;1.00
12438;DHT22;6283;51.330;12.374;2022-08-19T04:11:21;19.30;1.00
12438;DHT22;6283;51.330;12.374;2022-08-19T04:13:48;19.30;1.00
12438;DHT22;6283;51.330;12.374;2022-08-19T04:16:14;19.30;1.00
12438;DHT22;6283;51.330;12.374;2022-08-19T04:18:40;19.30;1.00
12438;DHT22;6283;51.330;12.374;2022-08-19T04:21:08;19.30;1.00
12438;DHT22;6283;51.330;12.374;2022-08-19T04:23:34;19.30;1.00
12438;DHT22;6283;51.330;12.374;2022-08-19T04:26:01;19.30;1.00
12438;DHT22;6283;51.330;12.374;2022-08-19T04:28:27;19.30;1.00
12438;DHT22;6283;51.330;12.374;2022-08-19T04:30:54;19.30;1.00
12438;DHT22;6283;51.330;12.374;2022-08-19T04:33:23;19.30;1.00
12438;DHT22;6283;51.330;12.374;2022-08-19T04:35:51;19.30;1.00
12438;DHT22;6283;51.330;12.374;2022-08-19T04:38:20;19.30;1.00
12438;DHT22;6283;51.330;12.374;2022-08-19T04:40:51;19.30;1.00
12438;DHT22;6283;51.330;12.374;2022-08-19T04:43:37;19.30;1.00
12438;DHT22;6283;51.330;12.374;2022-08-19T04:46:12;19.30;1.00
12438;DHT22;6283;51.330;12.374;2022-08-19T04:48:38;19.20;1.00
12438;DHT22;6283;51.330;12.374;2022-08-19T04:51:10;19.30;1.00
12438;DHT22;6283;51.330;12.374;2022-08-19T04:53:38;19.30;1.00
12438;DHT22;6283;51.330;12.374;2022-08-19T04:56:08;19.30;1.00
12438;DHT22;6283;51.330;12.374;2022-08-19T04:58:36;19.30;1.00
12438;DHT22;6283;51.330;12.374;2022-08-19T05:01:03;19.30;1.00
12438;DHT22;6283;51.330;12.374;2022-08-19T05:03:29;19.30;1.00
12438;DHT22;6283;51.330;12.374;2022-08-19T05:05:58;19.30;1.00
12438;DHT22;6283;51.330;12.374;2022-08-19T05:08:23;19.40;1.00
12438;DHT22;6283;51.330;12.374;2022-08-19T05:10:51;19.40;1.00
12438;DHT22;6283;51.330;12.374;2022-08-19T05:13:18;19.40;1.00
12438;DHT22;6283;51.330;12.374;2022-08-19T05:15:53;19.40;1.00
12438;DHT22;6283;51.330;12.374;2022-08-19T05:18:20;19.40;1.00
12438;DHT22;6283;51.330;12.374;2022-08-19T05:21:11;19.40;1.00
12438;DHT22;6283;51.330;12.374;2022-08-19T05:23:56;19.40;1.00
12438;DHT22;6283;51.330;12.374;2022-08-19T05:26:23;19.40;1.00
12438;DHT22;6283;51.330;12.374;2022-08-19T05:28:49;19.40;1.00
12438;DHT22;6283;51.330;12.374;2022-08-19T05:31:15;19.40;1.00
12438;DHT22;6283;51.330;12.374;2022-08-19T05:33:41;19.40;1.00
12438;DHT22;6283;51.330;12.374;2022-08-19T05:36:07;19.40;1.00
12438;DHT22;6283;51.330;12.374;2022-08-19T05:38:34;19.50;1.00
12438;DHT22;6283;51.330;12.374;2022-08-19T05:41:10;19.40;1.00
12438;DHT22;6283;51.330;12.374;2022-08-19T05:43:36;19.50;1.00
12438;DHT22;6283;51.330;12.374;2022-08-19T05:46:06;19.40;1.00
12438;DHT22;6283;51.330;12.374;2022-08-19T05:48:35;19.40;1.00
12438;DHT22;6283;51.330;12.374;2022-08-19T05:51:05;19.40;1.00
12438;DHT22;6283;51.330;12.374;2022-08-19T05:53:35;19.40;1.00
12438;DHT22;6283;51.330;12.374;2022-08-19T05:56:10;19.40;1.00
12438;DHT22;6283;51.330;12.374;2022-08-19T05:58:37;19.40;1.00
12438;DHT22;6283;51.330;12.374;2022-08-19T06:01:09;19.40;1.00
12438;DHT22;6283;51.330;12.374;2022-08-19T06:03:36;19.40;1.00
12438;DHT22;6283;51.330;12.374;2022-08-19T06:06:03;19.40;1.00
12438;DHT22;6283;51.330;12.374;2022-08-19T06:08:29;19.40;1.00
12438;DHT22;6283;51.330;12.374;2022-08-19T06:10:55;19.40;1.00
12438;DHT22;6283;51.330;12.374;2022-08-19T06:13:21;19.40;1.00
12438;DHT22;6283;51.330;12.374;2022-08-19T06:15:48;19.40;1.00
12438;DHT22;6283;51.330;12.374;2022-08-19T06:18:14;19.40;1.00
12438;DHT22;6283;51.330;12.374;2022-08-19T06:20:41;19.40;1.00
12438;DHT22;6283;51.330;12.374;2022-08-19T06:23:07;19.40;1.00
12438;DHT22;6283;51.330;12.374;2022-08-19T06:25:34;19.40;1.00
12438;DHT22;6283;51.330;12.374;2022-08-19T06:28:00;19.50;1.00
12438;DHT22;6283;51.330;12.374;2022-08-19T06:30:26;19.50;1.00
12438;DHT22;6283;51.330;12.374;2022-08-19T06:32:52;19.60;1.00
12438;DHT22;6283;51.330;12.374;2022-08-19T06:35:20;19.60;1.00
12438;DHT22;6283;51.330;12.374;2022-08-19T06:37:46;19.60;1.00
12438;DHT22;6283;51.330;12.374;2022-08-19T06:40:12;19.60;1.00
12438;DHT22;6283;51.330;12.374;2022-08-19T06:42:38;19.50;1.00
12438;DHT22;6283;51.330;12.374;2022-08-19T06:45:05;19.50;1.00
12438;DHT22;6283;51.330;12.374;2022-08-19T06:47:33;19.50;1.00
12438;DHT22;6283;51.330;12.374;2022-08-19T06:50:00;19.50;1.00
12438;DHT22;6283;51.330;12.374;2022-08-19T06:52:32;19.40;1.00
12438;DHT22;6283;51.330;12.374;2022-08-19T06:54:59;19.40;1.00
12438;DHT22;6283;51.330;12.374;2022-08-19T06:57:25;19.40;1.00
12438;DHT22;6283;51.330;12.374;2022-08-19T06:59:51;19.40;1.00
12438;DHT22;6283;51.330;12.374;2022-08-19T07:02:17;19.40;1.00
12438;DHT22;6283;51.330;12.374;2022-08-19T07:04:43;19.40;1.00
12438;DHT22;6283;51.330;12.374;2022-08-19T07:07:11;19.40;1.00
12438;DHT22;6283;51.330;12.374;2022-08-19T07:09:39;19.40;1.00
12438;DHT22;6283;51.330;12.374;2022-08-19T07:12:07;19.40;1.00
12438;DHT22;6283;51.330;12.374;2022-08-19T07:14:34;19.30;1.00
12438;DHT22;6283;51.330;12.374;2022-08-19T07:17:04;19.30;1.00
12438;DHT22;6283;51.330;12.374;2022-08-19T07:19:30;19.30;1.00
12438;DHT22;6283;51.330;12.374;2022-08-19T07:21:56;19.30;1.00
12438;DHT22;6283;51.330;12.374;2022-08-19T07:24:24;19.30;1.00
12438;DHT22;6283;51.330;12.374;2022-08-19T07:26:53;19.30;1.00
12438;DHT22;6283;51.330;12.374;2022-08-19T07:29:23;19.30;1.00
12438;DHT22;6283;51.330;12.374;2022-08-19T07:31:50;19.30;1.00
12438;DHT22;6283;51.330;12.374;2022-08-19T07:34:16;19.30;1.00
12438;DHT22;6283;51.330;12.374;2022-08-19T07:36:44;19.30;1.00
12438;DHT22;6283;51.330;12.374;2022-08-19T07:39:17;19.30;1.00
12438;DHT22;6283;51.330;12.374;2022-08-19T07:41:44;19.20;1.00
12438;DHT22;6283;51.330;12.374;2022-08-19T07:44:10;19.30;1.00
12438;DHT22;6283;51.330;12.374;2022-08-19T07:46:41;19.30;1.00
12438;DHT22;6283;51.330;12.374;2022-08-19T07:49:08;19.30;1.00
12438;DHT22;6283;51.330;12.374;2022-08-19T07:51:40;19.30;1.00
12438;DHT22;6283;51.330;12.374;2022-08-19T07:54:05;19.30;1.00
12438;DHT22;6283;51.330;12.374;2022-08-19T07:56:31;19.30;1.00
12438;DHT22;6283;51.330;12.374;2022-08-19T07:58:57;19.30;1.00
12438;DHT22;6283;51.330;12.374;2022-08-19T08:01:25;19.30;1.00
12438;DHT22;6283;51.330;12.374;2022-08-19T08:03:55;19.30;1.00
12438;DHT22;6283;51.330;12.374;2022-08-19T08:06:40;19.30;1.00
12438;DHT22;6283;51.330;12.374;2022-08-19T08:09:28;19.40;1.00
12438;DHT22;6283;51.330;12.374;2022-08-19T08:11:57;19.40;1.00
12438;DHT22;6283;51.330;12.374;2022-08-19T08:16:54;19.30;1.00
12438;DHT22;6283;51.330;12.374;2022-08-19T08:19:22;19.40;1.00
12438;DHT22;6283;51.330;12.374;2022-08-19T08:21:49;19.30;1.00
12438;DHT22;6283;51.330;12.374;2022-08-19T08:24:15;19.30;1.00
12438;DHT22;6283;51.330;12.374;2022-08-19T08:26:41;19.30;1.00
12438;DHT22;6283;51.330;12.374;2022-08-19T08:29:12;19.30;1.00
12438;DHT22;6283;51.330;12.374;2022-08-19T08:31:42;19.30;1.00
12438;DHT22;6283;51.330;12.374;2022-08-19T08:34:09;19.30;1.00
12438;DHT22;6283;51.330;12.374;2022-08-19T08:36:40;19.30;1.00
12438;DHT22;6283;51.330;12.374;2022-08-19T08:39:15;19.30;1.00
12438;DHT22;6283;51.330;12.374;2022-08-19T08:44:21;19.30;1.00
12438;DHT22;6283;51.330;12.374;2022-08-19T08:46:50;19.30;1.00
12438;DHT22;6283;51.330;12.374;2022-08-19T08:49:28;19.30;1.00
12438;DHT22;6283;51.330;12.374;2022-08-19T08:54:43;19.30;1.00
12438;DHT22;6283;51.330;12.374;2022-08-19T08:57:14;19.30;1.00
12438;DHT22;6283;51.330;12.374;2022-08-19T08:59:42;19.30;1.00
12438;DHT22;6283;51.330;12.374;2022-08-19T09:02:09;19.30;1.00
12438;DHT22;6283;51.330;12.374;2022-08-19T09:04:36;19.30;1.00
12438;DHT22;6283;51.330;12.374;2022-08-19T09:07:30;19.30;1.00
12438;DHT22;6283;51.330;12.374;2022-08-19T09:10:14;19.30;1.00
12438;DHT22;6283;51.330;12.374;2022-08-19T09:15:45;19.30;1.00
12438;DHT22;6283;51.330;12.374;2022-08-19T09:18:13;19.30;1.00
12438;DHT22;6283;51.330;12.374;2022-08-19T09:20:39;19.30;1.00
12438;DHT22;6283;51.330;12.374;2022-08-19T09:23:05;19.30;1.00
12438;DHT22;6283;51.330;12.374;2022-08-19T09:25:30;19.40;1.00
12438;DHT22;6283;51.330;12.374;2022-08-19T09:27:57;19.40;1.00
12438;DHT22;6283;51.330;12.374;2022-08-19T09:30:29;19.40;1.00
12438;DHT22;6283;51.330;12.374;2022-08-19T09:32:55;19.40;1.00
12438;DHT22;6283;51.330;12.374;2022-08-19T09:35:23;19.40;1.00
12438;DHT22;6283;51.330;12.374;2022-08-19T09:37:49;19.50;1.00
12438;DHT22;6283;51.330;12.374;2022-08-19T09:40:16;19.50;1.00
12438;DHT22;6283;51.330;12.374;2022-08-19T09:42:43;19.50;1.00
12438;DHT22;6283;51.330;12.374;2022-08-19T09:45:13;19.50;1.00
12438;DHT22;6283;51.330;12.374;2022-08-19T09:47:39;19.50;1.00
12438;DHT22;6283;51.330;12.374;2022-08-19T09:50:07;19.60;1.00
12438;DHT22;6283;51.330;12.374;2022-08-19T09:52:33;19.60;1.00
12438;DHT22;6283;51.330;12.374;2022-08-19T09:55:00;19.60;1.00
12438;DHT22;6283;51.330;12.374;2022-08-19T09:57:25;19.50;1.00
12438;DHT22;6283;51.330;12.374;2022-08-19T09:59:51;19.50;1.00
12438;DHT22;6283;51.330;12.374;2022-08-19T10:02:17;19.50;1.00
12438;DHT22;6283;51.330;12.374;2022-08-19T10:04:43;19.50;1.00
12438;DHT22;6283;51.330;12.374;2022-08-19T10:07:29;19.50;1.00
12438;DHT22;6283;51.330;12.374;2022-08-19T10:09:55;19.50;1.00
12438;DHT22;6283;51.330;12.374;2022-08-19T10:12:21;19.60;1.00
12438;DHT22;6283;51.330;12.374;2022-08-19T10:14:47;19.70;1.00
12438;DHT22;6283;51.330;12.374;2022-08-19T10:17:13;19.70;1.00
12438;DHT22;6283;51.330;12.374;2022-08-19T10:19:39;19.80;1.00
12438;DHT22;6283;51.330;12.374;2022-08-19T10:22:06;19.90;1.00
12438;DHT22;6283;51.330;12.374;2022-08-19T10:24:33;20.00;1.00
12438;DHT22;6283;51.330;12.374;2022-08-19T10:27:00;20.00;1.00
12438;DHT22;6283;51.330;12.374;2022-08-19T10:29:29;20.10;1.00
12438;DHT22;6283;51.330;12.374;2022-08-19T10:31:55;20.00;1.00
12438;DHT22;6283;51.330;12.374;2022-08-19T10:34:24;20.10;1.00
12438;DHT22;6283;51.330;12.374;2022-08-19T10:36:49;20.20;1.00
12438;DHT22;6283;51.330;12.374;2022-08-19T10:39:16;20.20;1.00
12438;DHT22;6283;51.330;12.374;2022-08-19T10:41:42;20.10;1.00
12438;DHT22;6283;51.330;12.374;2022-08-19T10:44:10;20.10;1.00
12438;DHT22;6283;51.330;12.374;2022-08-19T10:46:43;20.00;1.00
12438;DHT22;6283;51.330;12.374;2022-08-19T10:49:11;20.00;1.00
12438;DHT22;6283;51.330;12.374;2022-08-19T10:51:38;20.00;1.00
12438;DHT22;6283;51.330;12.374;2022-08-19T10:54:22;19.90;1.00
12438;DHT22;6283;51.330;12.374;2022-08-19T10:56:48;19.90;1.00
12438;DHT22;6283;51.330;12.374;2022-08-19T10:59:28;19.90;1.00
12438;DHT22;6283;51.330;12.374;2022-08-19T11:02:05;20.10;1.00
12438;DHT22;6283;51.330;12.374;2022-08-19T11:04:31;20.00;1.00
12438;DHT22;6283;51.330;12.374;2022-08-19T11:06:57;20.10;1.00
12438;DHT22;6283;51.330;12.374;2022-08-19T11:09:25;20.10;1.00
12438;DHT22;6283;51.330;12.374;2022-08-19T11:11:52;20.10;1.00
12438;DHT22;6283;51.330;12.374;2022-08-19T11:14:19;20.10;1.00
12438;DHT22;6283;51.330;12.374;2022-08-19T11:16:50;20.00;1.00
12438;DHT22;6283;51.330;12.374;2022-08-19T11:19:17;20.00;1.00
12438;DHT22;6283;51.330;12.374;2022-08-19T11:21:47;20.00;1.00
12438;DHT22;6283;51.330;12.374;2022-08-19T11:24:19;19.80;1.00
12438;DHT22;6283;51.330;12.374;2022-08-19T11:26:46;19.80;1.00
12438;DHT22;6283;51.330;12.374;2022-08-19T11:29:15;19.80;1.00
12438;DHT22;6283;51.330;12.374;2022-08-19T11:31:43;19.80;1.00
12438;DHT22;6283;51.330;12.374;2022-08-19T11:34:12;19.70;1.00
12438;DHT22;6283;51.330;12.374;2022-08-19T11:36:40;19.80;1.00
12438;DHT22;6283;51.330;12.374;2022-08-19T11:39:08;19.80;1.00
12438;DHT22;6283;51.330;12.374;2022-08-19T11:41:35;20.00;1.00
12438;DHT22;6283;51.330;12.374;2022-08-19T11:44:00;20.10;1.00
12438;DHT22;6283;51.330;12.374;2022-08-19T11:46:28;20.10;1.00
12438;DHT22;6283;51.330;12.374;2022-08-19T11:48:56;20.10;1.00
12438;DHT22;6283;51.330;12.374;2022-08-19T11:51:23;20.20;1.00
12438;DHT22;6283;51.330;12.374;2022-08-19T11:53:54;20.10;1.00
12438;DHT22;6283;51.330;12.374;2022-08-19T11:56:21;20.20;1.00
12438;DHT22;6283;51.330;12.374;2022-08-19T11:58:47;20.40;1.00
12438;DHT22;6283;51.330;12.374;2022-08-19T12:01:15;20.40;1.00
12438;DHT22;6283;51.330;12.374;2022-08-19T12:03:41;20.40;1.00
12438;DHT22;6283;51.330;12.374;2022-08-19T12:06:14;20.50;1.00
12438;DHT22;6283;51.330;12.374;2022-08-19T12:08:41;20.70;1.00
12438;DHT22;6283;51.330;12.374;2022-08-19T12:11:07;20.80;1.00
12438;DHT22;6283;51.330;12.374;2022-08-19T12:13:33;20.90;1.00
12438;DHT22;6283;51.330;12.374;2022-08-19T12:15:59;21.10;1.00
12438;DHT22;6283;51.330;12.374;2022-08-19T12:18:25;21.20;1.00
12438;DHT22;6283;51.330;12.374;2022-08-19T12:20:51;21.40;1.00
12438;DHT22;6283;51.330;12.374;2022-08-19T12:23:17;21.40;1.00
12438;DHT22;6283;51.330;12.374;2022-08-19T12:25:44;21.40;1.00
12438;DHT22;6283;51.330;12.374;2022-08-19T12:28:22;21.50;1.00
12438;DHT22;6283;51.330;12.374;2022-08-19T12:30:49;21.60;1.00
12438;DHT22;6283;51.330;12.374;2022-08-19T12:33:19;21.70;1.00
12438;DHT22;6283;51.330;12.374;2022-08-19T12:35:48;21.70;1.00
12438;DHT22;6283;51.330;12.374;2022-08-19T12:38:14;21.70;1.00
12438;DHT22;6283;51.330;12.374;2022-08-19T12:40:40;21.80;1.00
12438;DHT22;6283;51.330;12.374;2022-08-19T12:43:07;22.10;1.00
12438;DHT22;6283;51.330;12.374;2022-08-19T12:45:34;22.30;1.00
12438;DHT22;6283;51.330;12.374;2022-08-19T12:48:00;22.50;1.00
12438;DHT22;6283;51.330;12.374;2022-08-19T12:50:26;22.70;1.00
12438;DHT22;6283;51.330;12.374;2022-08-19T12:52:51;23.20;1.00
12438;DHT22;6283;51.330;12.374;2022-08-19T12:55:17;23.40;1.00
12438;DHT22;6283;51.330;12.374;2022-08-19T12:57:44;23.70;1.00
12438;DHT22;6283;51.330;12.374;2022-08-19T13:00:14;24.00;1.00
12438;DHT22;6283;51.330;12.374;2022-08-19T13:02:42;24.40;1.00
12438;DHT22;6283;51.330;12.374;2022-08-19T13:05:11;24.70;1.00
12438;DHT22;6283;51.330;12.374;2022-08-19T13:07:39;24.60;1.00
12438;DHT22;6283;51.330;12.374;2022-08-19T13:10:08;24.30;1.00
12438;DHT22;6283;51.330;12.374;2022-08-19T13:12:34;24.20;1.00
12438;DHT22;6283;51.330;12.374;2022-08-19T13:15:00;24.10;1.00
12438;DHT22;6283;51.330;12.374;2022-08-19T13:17:26;24.00;1.00
12438;DHT22;6283;51.330;12.374;2022-08-19T13:19:52;23.90;1.00
12438;DHT22;6283;51.330;12.374;2022-08-19T13:22:18;23.70;1.00
12438;DHT22;6283;51.330;12.374;2022-08-19T13:24:44;23.60;1.00
12438;DHT22;6283;51.330;12.374;2022-08-19T13:27:09;23.50;1.00
12438;DHT22;6283;51.330;12.374;2022-08-19T13:29:35;23.30;1.00
12438;DHT22;6283;51.330;12.374;2022-08-19T13:32:19;23.10;1.00
12438;DHT22;6283;51.330;12.374;2022-08-19T13:35:03;23.10;1.00
12438;DHT22;6283;51.330;12.374;2022-08-19T13:37:29;23.00;1.00
12438;DHT22;6283;51.330;12.374;2022-08-19T13:42:43;22.90;1.00
12438;DHT22;6283;51.330;12.374;2022-08-19T13:45:10;22.80;1.00
12438;DHT22;6283;51.330;12.374;2022-08-19T13:47:37;22.80;1.00
12438;DHT22;6283;51.330;12.374;2022-08-19T13:50:14;22.70;1.00
12438;DHT22;6283;51.330;12.374;2022-08-19T13:52:44;22.70;1.00
12438;DHT22;6283;51.330;12.374;2022-08-19T13:55:11;22.70;1.00
12438;DHT22;6283;51.330;12.374;2022-08-19T13:57:37;22.70;1.00
12438;DHT22;6283;51.330;12.374;2022-08-19T14:00:13;22.60;1.00
12438;DHT22;6283;51.330;12.374;2022-08-19T14:02:39;22.50;1.00
12438;DHT22;6283;51.330;12.374;2022-08-19T14:05:07;22.50;1.00
12438;DHT22;6283;51.330;12.374;2022-08-19T14:07:33;22.50;1.00
12438;DHT22;6283;51.330;12.374;2022-08-19T14:09:59;22.50;1.00
12438;DHT22;6283;51.330;12.374;2022-08-19T14:12:25;22.50;1.00
12438;DHT22;6283;51.330;12.374;2022-08-19T14:14:50;22.50;1.00
12438;DHT22;6283;51.330;12.374;2022-08-19T14:17:16;22.60;1.00
12438;DHT22;6283;51.330;12.374;2022-08-19T14:19:42;22.60;1.00
12438;DHT22;6283;51.330;12.374;2022-08-19T14:22:08;22.60;1.00
12438;DHT22;6283;51.330;12.374;2022-08-19T14:24:36;22.70;1.00
12438;DHT22;6283;51.330;12.374;2022-08-19T14:27:02;22.70;1.00
12438;DHT22;6283;51.330;12.374;2022-08-19T14:29:28;22.80;1.00
12438;DHT22;6283;51.330;12.374;2022-08-19T14:31:54;22.70;1.00
12438;DHT22;6283;51.330;12.374;2022-08-19T14:34:21;22.70;1.00
12438;DHT22;6283;51.330;12.374;2022-08-19T14:36:47;22.80;1.00
12438;DHT22;6283;51.330;12.374;2022-08-19T14:39:13;22.70;1.00
12438;DHT22;6283;51.330;12.374;2022-08-19T14:41:40;22.70;1.00
12438;DHT22;6283;51.330;12.374;2022-08-19T14:44:07;22.80;1.00
12438;DHT22;6283;51.330;12.374;2022-08-19T14:46:35;22.80;1.00
12438;DHT22;6283;51.330;12.374;2022-08-19T14:49:00;22.80;1.00
12438;DHT22;6283;51.330;12.374;2022-08-19T14:51:27;22.70;1.00
12438;DHT22;6283;51.330;12.374;2022-08-19T14:53:53;22.70;1.00
12438;DHT22;6283;51.330;12.374;2022-08-19T14:56:22;22.70;1.00
12438;DHT22;6283;51.330;12.374;2022-08-19T14:58:51;22.70;1.00
12438;DHT22;6283;51.330;12.374;2022-08-19T15:01:18;22.60;1.00
12438;DHT22;6283;51.330;12.374;2022-08-19T15:03:46;22.60;1.00
12438;DHT22;6283;51.330;12.374;2022-08-19T15:06:12;22.60;1.00
12438;DHT22;6283;51.330;12.374;2022-08-19T15:08:40;22.60;1.00
12438;DHT22;6283;51.330;12.374;2022-08-19T15:11:15;22.60;1.00
12438;DHT22;6283;51.330;12.374;2022-08-19T15:13:43;22.60;1.00
12438;DHT22;6283;51.330;12.374;2022-08-19T15:16:10;22.50;1.00
12438;DHT22;6283;51.330;12.374;2022-08-19T15:18:36;22.50;1.00
12438;DHT22;6283;51.330;12.374;2022-08-19T15:21:02;22.40;1.00
12438;DHT22;6283;51.330;12.374;2022-08-19T15:23:29;22.40;1.00
12438;DHT22;6283;51.330;12.374;2022-08-19T15:25:55;22.40;1.00
12438;DHT22;6283;51.330;12.374;2022-08-19T15:28:25;22.30;1.00
12438;DHT22;6283;51.330;12.374;2022-08-19T15:30:51;22.30;1.00
12438;DHT22;6283;51.330;12.374;2022-08-19T15:33:18;22.20;1.00
12438;DHT22;6283;51.330;12.374;2022-08-19T15:35:45;22.20;1.00
12438;DHT22;6283;51.330;12.374;2022-08-19T15:38:11;22.20;1.00
12438;DHT22;6283;51.330;12.374;2022-08-19T15:40:39;22.20;1.00
12438;DHT22;6283;51.330;12.374;2022-08-19T15:43:06;22.20;1.00
12438;DHT22;6283;51.330;12.374;2022-08-19T15:45:31;22.20;1.00
12438;DHT22;6283;51.330;12.374;2022-08-19T15:48:02;22.10;1.00
12438;DHT22;6283;51.330;12.374;2022-08-19T15:50:29;22.10;1.00
12438;DHT22;6283;51.330;12.374;2022-08-19T15:53:04;22.10;1.00
12438;DHT22;6283;51.330;12.374;2022-08-19T15:55:33;22.10;1.00
12438;DHT22;6283;51.330;12.374;2022-08-19T15:58:03;22.20;1.00
12438;DHT22;6283;51.330;12.374;2022-08-19T16:00:47;22.20;1.00
12438;DHT22;6283;51.330;12.374;2022-08-19T16:03:31;22.20;1.00
12438;DHT22;6283;51.330;12.374;2022-08-19T16:06:15;22.30;1.00